sensor_id;sensor_type;location;lat;lon;timestamp;pressure;altitude;pressure_sealevel;temperature
24201;BMP280;2801;50.972;7.856;2023-02-23T00:02:00;97154.41;;;8.48
24201;BMP280;2801;50.972;7.856;2023-02-23T00:04:34;97154.88;;;8.50
24201;BMP280;2801;50.972;7.856;2023-02-23T00:07:01;97158.03;;;8.52
24201;BMP280;2801;50.972;7.856;2023-02-23T00:09:28;97159.28;;;8.55
24201;BMP280;2801;50.972;7.856;2023-02-23T00:12:05;97156.75;;;8.58
24201;BMP280;2801;50.972;7.856;2023-02-23T00:14:36;97155.34;;;8.61
24201;BMP280;2801;50.972;7.856;2023-02-23T00:17:05;97152.66;;;8.61
24201;BMP280;2801;50.972;7.856;2023-02-23T00:19:40;97154.56;;;8.60
24201;BMP280;2801;50.972;7.856;2023-02-23T00:22:09;97151.41;;;8.58
24201;BMP280;2801;50.972;7.856;2023-02-23T00:24:36;97149.84;;;8.57
24201;BMP280;2801;50.972;7.856;2023-02-23T00:27:04;97146.56;;;8.60
24201;BMP280;2801;50.972;7.856;2023-02-23T00:29:32;97148.44;;;8.60
24201;BMP280;2801;50.972;7.856;2023-02-23T00:32:06;97138.84;;;8.59
24201;BMP280;2801;50.972;7.856;2023-02-23T00:34:33;97146.25;;;8.62
24201;BMP280;2801;50.972;7.856;2023-02-23T00:37:02;97142.78;;;8.61
24201;BMP280;2801;50.972;7.856;2023-02-23T00:39:28;97146.06;;;8.58
24201;BMP280;2801;50.972;7.856;2023-02-23T00:41:56;97147.63;;;8.59
24201;BMP280;2801;50.972;7.856;2023-02-23T00:44:28;97149.69;;;8.62
24201;BMP280;2801;50.972;7.856;2023-02-23T00:46:55;97146.38;;;8.65
24201;BMP280;2801;50.972;7.856;2023-02-23T00:49:22;97151.84;;;8.69
24201;BMP280;2801;50.972;7.856;2023-02-23T00:51:49;97140.09;;;8.61
24201;BMP280;2801;50.972;7.856;2023-02-23T00:54:20;97143.41;;;8.67
24201;BMP280;2801;50.972;7.856;2023-02-23T00:56:47;97139.59;;;8.68
24201;BMP280;2801;50.972;7.856;2023-02-23T00:59:15;97145.59;;;8.65
24201;BMP280;2801;50.972;7.856;2023-02-23T01:01:42;97147.81;;;8.63
24201;BMP280;2801;50.972;7.856;2023-02-23T01:04:11;97143.56;;;8.62
24201;BMP280;2801;50.972;7.856;2023-02-23T01:06:39;97139.97;;;8.58
24201;BMP280;2801;50.972;7.856;2023-02-23T01:09:14;97147.50;;;8.64
24201;BMP280;2801;50.972;7.856;2023-02-23T01:11:47;97148.72;;;8.67
24201;BMP280;2801;50.972;7.856;2023-02-23T01:14:14;97150.31;;;8.68
24201;BMP280;2801;50.972;7.856;2023-02-23T01:16:41;97144.94;;;8.68
24201;BMP280;2801;50.972;7.856;2023-02-23T01:19:09;97145.75;;;8.68
24201;BMP280;2801;50.972;7.856;2023-02-23T01:21:39;97137.09;;;8.71
24201;BMP280;2801;50.972;7.856;2023-02-23T01:24:08;97125.13;;;8.69
24201;BMP280;2801;50.972;7.856;2023-02-23T01:26:42;97133.78;;;8.74
24201;BMP280;2801;50.972;7.856;2023-02-23T01:29:15;97130.66;;;8.72
24201;BMP280;2801;50.972;7.856;2023-02-23T01:31:46;97133.00;;;8.74
24201;BMP280;2801;50.972;7.856;2023-02-23T01:34:14;97134.56;;;8.75
24201;BMP280;2801;50.972;7.856;2023-02-23T01:36:43;97134.25;;;8.76
24201;BMP280;2801;50.972;7.856;2023-02-23T01:39:19;97123.56;;;8.76
24201;BMP280;2801;50.972;7.856;2023-02-23T01:41:47;97127.78;;;8.77
24201;BMP280;2801;50.972;7.856;2023-02-23T01:46:45;97134.88;;;8.82
24201;BMP280;2801;50.972;7.856;2023-02-23T01:49:19;97134.22;;;8.85
24201;BMP280;2801;50.972;7.856;2023-02-23T01:52:10;97126.06;;;8.81
24201;BMP280;2801;50.972;7.856;2023-02-23T01:54:52;97124.00;;;8.87
24201;BMP280;2801;50.972;7.856;2023-02-23T01:57:22;97122.56;;;8.89
24201;BMP280;2801;50.972;7.856;2023-02-23T01:59:51;97122.25;;;8.91
24201;BMP280;2801;50.972;7.856;2023-02-23T02:02:22;97128.38;;;8.91
24201;BMP280;2801;50.972;7.856;2023-02-23T02:04:53;97129.94;;;8.92
24201;BMP280;2801;50.972;7.856;2023-02-23T02:07:27;97128.06;;;8.93
24201;BMP280;2801;50.972;7.856;2023-02-23T02:09:57;97127.75;;;8.94
24201;BMP280;2801;50.972;7.856;2023-02-23T02:12:54;97120.19;;;8.96
24201;BMP280;2801;50.972;7.856;2023-02-23T02:15:30;97113.75;;;8.97
24201;BMP280;2801;50.972;7.856;2023-02-23T02:18:28;97116.44;;;8.97
24201;BMP280;2801;50.972;7.856;2023-02-23T02:21:40;97117.50;;;8.96
24201;BMP280;2801;50.972;7.856;2023-02-23T02:45:00;97110.91;;;8.94
24201;BMP280;2801;50.972;7.856;2023-02-23T02:48:02;97105.88;;;8.92
24201;BMP280;2801;50.972;7.856;2023-02-23T02:50:46;97101.19;;;8.89
24201;BMP280;2801;50.972;7.856;2023-02-23T02:53:34;97103.72;;;8.86
24201;BMP280;2801;50.972;7.856;2023-02-23T02:56:05;97110.63;;;8.87
24201;BMP280;2801;50.972;7.856;2023-02-23T02:58:33;97106.06;;;8.87
24201;BMP280;2801;50.972;7.856;2023-02-23T03:01:12;97102.28;;;8.88
24201;BMP280;2801;50.972;7.856;2023-02-23T03:04:16;97095.69;;;8.86
24201;BMP280;2801;50.972;7.856;2023-02-23T03:07:29;97090.06;;;8.79
24201;BMP280;2801;50.972;7.856;2023-02-23T03:10:45;97091.19;;;8.78
24201;BMP280;2801;50.972;7.856;2023-02-23T03:13:48;97089.94;;;8.75
24201;BMP280;2801;50.972;7.856;2023-02-23T03:20:05;97084.63;;;8.58
24201;BMP280;2801;50.972;7.856;2023-02-23T03:26:23;97096.09;;;8.59
24201;BMP280;2801;50.972;7.856;2023-02-23T03:29:46;97098.78;;;8.59
24201;BMP280;2801;50.972;7.856;2023-02-23T03:32:49;97092.97;;;8.57
24201;BMP280;2801;50.972;7.856;2023-02-23T03:38:50;97099.09;;;8.57
24201;BMP280;2801;50.972;7.856;2023-02-23T03:41:40;97091.88;;;8.58
24201;BMP280;2801;50.972;7.856;2023-02-23T03:44:43;97096.41;;;8.57
24201;BMP280;2801;50.972;7.856;2023-02-23T03:47:35;97090.47;;;8.52
24201;BMP280;2801;50.972;7.856;2023-02-23T03:50:38;97100.84;;;8.53
24201;BMP280;2801;50.972;7.856;2023-02-23T03:53:34;97089.53;;;8.48
24201;BMP280;2801;50.972;7.856;2023-02-23T03:56:25;97093.13;;;8.52
24201;BMP280;2801;50.972;7.856;2023-02-23T03:59:14;97093.75;;;8.49
24201;BMP280;2801;50.972;7.856;2023-02-23T04:02:05;97100.03;;;8.44
24201;BMP280;2801;50.972;7.856;2023-02-23T04:04:58;97097.72;;;8.43
24201;BMP280;2801;50.972;7.856;2023-02-23T04:07:48;97101.03;;;8.40
24201;BMP280;2801;50.972;7.856;2023-02-23T04:10:45;97099.78;;;8.37
24201;BMP280;2801;50.972;7.856;2023-02-23T04:13:36;97081.84;;;8.21
24201;BMP280;2801;50.972;7.856;2023-02-23T04:16:09;97103.69;;;8.31
24201;BMP280;2801;50.972;7.856;2023-02-23T04:18:38;97100.72;;;8.33
24201;BMP280;2801;50.972;7.856;2023-02-23T04:21:06;97097.25;;;8.32
24201;BMP280;2801;50.972;7.856;2023-02-23T04:23:34;97104.19;;;8.33
24201;BMP280;2801;50.972;7.856;2023-02-23T04:26:03;97106.38;;;8.31
24201;BMP280;2801;50.972;7.856;2023-02-23T04:28:30;97107.47;;;8.30
24201;BMP280;2801;50.972;7.856;2023-02-23T04:30:57;97104.50;;;8.32
24201;BMP280;2801;50.972;7.856;2023-02-23T04:33:24;97097.25;;;8.32
24201;BMP280;2801;50.972;7.856;2023-02-23T04:35:53;97103.84;;;8.35
24201;BMP280;2801;50.972;7.856;2023-02-23T04:38:21;97106.50;;;8.35
24201;BMP280;2801;50.972;7.856;2023-02-23T04:40:49;97104.31;;;8.37
24201;BMP280;2801;50.972;7.856;2023-02-23T04:43:16;97105.72;;;8.43
24201;BMP280;2801;50.972;7.856;2023-02-23T04:45:43;97105.72;;;8.43
24201;BMP280;2801;50.972;7.856;2023-02-23T04:48:10;97112.78;;;8.47
24201;BMP280;2801;50.972;7.856;2023-02-23T04:50:37;97114.81;;;8.50
24201;BMP280;2801;50.972;7.856;2023-02-23T04:53:05;97110.59;;;8.49
24201;BMP280;2801;50.972;7.856;2023-02-23T04:55:32;97108.38;;;8.51
24201;BMP280;2801;50.972;7.856;2023-02-23T04:58:00;97100.84;;;8.53
24201;BMP280;2801;50.972;7.856;2023-02-23T05:00:28;97104.75;;;8.56
24201;BMP280;2801;50.972;7.856;2023-02-23T05:02:56;97107.28;;;8.52
24201;BMP280;2801;50.972;7.856;2023-02-23T05:05:24;97107.13;;;8.49
24201;BMP280;2801;50.972;7.856;2023-02-23T05:07:50;97110.59;;;8.49
24201;BMP280;2801;50.972;7.856;2023-02-23T05:10:18;97114.81;;;8.50
24201;BMP280;2801;50.972;7.856;2023-02-23T05:12:45;97115.31;;;8.52
24201;BMP280;2801;50.972;7.856;2023-02-23T05:15:12;97117.63;;;8.54
24201;BMP280;2801;50.972;7.856;2023-02-23T05:17:40;97120.47;;;8.57
24201;BMP280;2801;50.972;7.856;2023-02-23T05:20:11;97113.09;;;8.54
24201;BMP280;2801;50.972;7.856;2023-02-23T05:22:39;97124.41;;;8.51
24201;BMP280;2801;50.972;7.856;2023-02-23T05:25:07;97115.94;;;8.49
24201;BMP280;2801;50.972;7.856;2023-02-23T05:27:35;97126.63;;;8.49
24201;BMP280;2801;50.972;7.856;2023-02-23T05:30:05;97118.13;;;8.47
24201;BMP280;2801;50.972;7.856;2023-02-23T05:32:33;97123.94;;;8.49
24201;BMP280;2801;50.972;7.856;2023-02-23T05:35:01;97118.91;;;8.48
24201;BMP280;2801;50.972;7.856;2023-02-23T05:37:28;97120.47;;;8.49
24201;BMP280;2801;50.972;7.856;2023-02-23T05:39:55;97123.47;;;8.47
24201;BMP280;2801;50.972;7.856;2023-02-23T05:42:21;97122.22;;;8.45
24201;BMP280;2801;50.972;7.856;2023-02-23T05:44:48;97117.66;;;8.45
24201;BMP280;2801;50.972;7.856;2023-02-23T05:47:15;97115.31;;;8.44
24201;BMP280;2801;50.972;7.856;2023-02-23T05:49:42;97120.97;;;8.51
24201;BMP280;2801;50.972;7.856;2023-02-23T05:52:11;97107.44;;;8.47
24201;BMP280;2801;50.972;7.856;2023-02-23T05:54:38;97121.72;;;8.60
24201;BMP280;2801;50.972;7.856;2023-02-23T05:57:05;97120.91;;;8.59
24201;BMP280;2801;50.972;7.856;2023-02-23T05:59:33;97117.94;;;8.61
24201;BMP280;2801;50.972;7.856;2023-02-23T06:02:01;97118.25;;;8.59
24201;BMP280;2801;50.972;7.856;2023-02-23T06:04:32;97118.41;;;8.54
24201;BMP280;2801;50.972;7.856;2023-02-23T06:06:58;97117.47;;;8.59
24201;BMP280;2801;50.972;7.856;2023-02-23T06:09:25;97126.44;;;8.63
24201;BMP280;2801;50.972;7.856;2023-02-23T06:11:52;97099.72;;;8.54
24201;BMP280;2801;50.972;7.856;2023-02-23T06:14:19;97122.81;;;8.67
24201;BMP280;2801;50.972;7.856;2023-02-23T06:16:46;97129.72;;;8.68
24201;BMP280;2801;50.972;7.856;2023-02-23T06:19:14;97131.59;;;8.68
24201;BMP280;2801;50.972;7.856;2023-02-23T06:21:41;97134.59;;;8.66
24201;BMP280;2801;50.972;7.856;2023-02-23T06:24:08;97136.94;;;8.68
24201;BMP280;2801;50.972;7.856;2023-02-23T06:26:35;97135.06;;;8.68
24201;BMP280;2801;50.972;7.856;2023-02-23T06:29:02;97130.97;;;8.62
24201;BMP280;2801;50.972;7.856;2023-02-23T06:31:29;97143.84;;;8.69
24201;BMP280;2801;50.972;7.856;2023-02-23T06:33:57;97142.28;;;8.68
24201;BMP280;2801;50.972;7.856;2023-02-23T06:36:24;97142.59;;;8.66
24201;BMP280;2801;50.972;7.856;2023-02-23T06:38:55;97151.09;;;8.68
24201;BMP280;2801;50.972;7.856;2023-02-23T06:41:22;97153.13;;;8.71
24201;BMP280;2801;50.972;7.856;2023-02-23T06:43:50;97151.72;;;8.74
24201;BMP280;2801;50.972;7.856;2023-02-23T06:46:18;97150.91;;;8.73
24201;BMP280;2801;50.972;7.856;2023-02-23T06:48:45;97149.81;;;8.74
24201;BMP280;2801;50.972;7.856;2023-02-23T06:51:12;97157.50;;;8.76
24201;BMP280;2801;50.972;7.856;2023-02-23T06:53:39;97161.44;;;8.78
24201;BMP280;2801;50.972;7.856;2023-02-23T06:56:06;97157.66;;;8.79
24201;BMP280;2801;50.972;7.856;2023-02-23T06:58:33;97164.72;;;8.84
24201;BMP280;2801;50.972;7.856;2023-02-23T07:01:00;97157.50;;;8.84
24201;BMP280;2801;50.972;7.856;2023-02-23T07:03:27;97157.19;;;8.86
24201;BMP280;2801;50.972;7.856;2023-02-23T07:05:54;97164.09;;;8.87
24201;BMP280;2801;50.972;7.856;2023-02-23T07:08:21;97165.34;;;8.89
24201;BMP280;2801;50.972;7.856;2023-02-23T07:10:48;97168.00;;;8.89
24201;BMP280;2801;50.972;7.856;2023-02-23T07:13:14;97171.47;;;8.90
24201;BMP280;2801;50.972;7.856;2023-02-23T07:15:42;97178.06;;;8.92
24201;BMP280;2801;50.972;7.856;2023-02-23T07:18:09;97175.88;;;8.94
24201;BMP280;2801;50.972;7.856;2023-02-23T07:20:36;97173.97;;;8.95
24201;BMP280;2801;50.972;7.856;2023-02-23T07:23:03;97189.53;;;9.01
24201;BMP280;2801;50.972;7.856;2023-02-23T07:25:30;97191.22;;;9.06
24201;BMP280;2801;50.972;7.856;2023-02-23T07:27:57;97191.72;;;9.08
24201;BMP280;2801;50.972;7.856;2023-02-23T07:30:24;97190.28;;;9.10
24201;BMP280;2801;50.972;7.856;2023-02-23T07:32:52;97178.34;;;9.08
24201;BMP280;2801;50.972;7.856;2023-02-23T07:35:19;97185.06;;;9.14
24201;BMP280;2801;50.972;7.856;2023-02-23T07:37:46;97180.38;;;9.11
24201;BMP280;2801;50.972;7.856;2023-02-23T07:40:13;97185.69;;;9.19
24201;BMP280;2801;50.972;7.856;2023-02-23T07:42:40;97188.03;;;9.21
24201;BMP280;2801;50.972;7.856;2023-02-23T07:45:08;97179.25;;;9.20
24201;BMP280;2801;50.972;7.856;2023-02-23T07:47:35;97189.41;;;9.35
24201;BMP280;2801;50.972;7.856;2023-02-23T07:50:08;97191.75;;;9.37
24201;BMP280;2801;50.972;7.856;2023-02-23T07:52:38;97188.31;;;9.36
24201;BMP280;2801;50.972;7.856;2023-02-23T07:55:07;97187.50;;;9.36
24201;BMP280;2801;50.972;7.856;2023-02-23T07:57:34;97186.75;;;9.35
24201;BMP280;2801;50.972;7.856;2023-02-23T08:00:01;97185.16;;;9.34
24201;BMP280;2801;50.972;7.856;2023-02-23T08:02:28;97205.28;;;9.40
24201;BMP280;2801;50.972;7.856;2023-02-23T08:04:55;97200.06;;;9.44
24201;BMP280;2801;50.972;7.856;2023-02-23T08:07:22;97196.47;;;9.40
24201;BMP280;2801;50.972;7.856;2023-02-23T08:09:51;97204.66;;;9.43
24201;BMP280;2801;50.972;7.856;2023-02-23T08:12:19;97205.41;;;9.44
24201;BMP280;2801;50.972;7.856;2023-02-23T08:14:46;97203.84;;;9.43
24201;BMP280;2801;50.972;7.856;2023-02-23T08:17:13;97204.47;;;9.48
24201;BMP280;2801;50.972;7.856;2023-02-23T08:19:39;97209.63;;;9.53
24201;BMP280;2801;50.972;7.856;2023-02-23T08:22:06;97211.97;;;9.55
24201;BMP280;2801;50.972;7.856;2023-02-23T08:24:37;97207.25;;;9.52
24201;BMP280;2801;50.972;7.856;2023-02-23T08:27:04;97211.81;;;9.60
24201;BMP280;2801;50.972;7.856;2023-02-23T08:29:31;97218.41;;;9.62
24201;BMP280;2801;50.972;7.856;2023-02-23T08:32:03;97219.66;;;9.65
24201;BMP280;2801;50.972;7.856;2023-02-23T08:34:31;97228.28;;;9.70
24201;BMP280;2801;50.972;7.856;2023-02-23T08:36:57;97225.75;;;9.74
24201;BMP280;2801;50.972;7.856;2023-02-23T08:39:25;97236.13;;;9.75
24201;BMP280;2801;50.972;7.856;2023-02-23T08:41:52;97219.78;;;9.68
24201;BMP280;2801;50.972;7.856;2023-02-23T08:44:21;97230.78;;;9.75
24201;BMP280;2801;50.972;7.856;2023-02-23T08:46:47;97239.91;;;9.74
24201;BMP280;2801;50.972;7.856;2023-02-23T08:49:15;97240.84;;;9.78
24201;BMP280;2801;50.972;7.856;2023-02-23T08:51:42;97234.69;;;9.78
24201;BMP280;2801;50.972;7.856;2023-02-23T08:54:08;97239.28;;;9.77
24201;BMP280;2801;50.972;7.856;2023-02-23T08:56:40;97233.78;;;9.74
24201;BMP280;2801;50.972;7.856;2023-02-23T08:59:08;97243.66;;;9.82
24201;BMP280;2801;50.972;7.856;2023-02-23T09:01:35;97238.34;;;9.73
24201;BMP280;2801;50.972;7.856;2023-02-23T09:04:04;97249.50;;;9.75
24201;BMP280;2801;50.972;7.856;2023-02-23T09:06:31;97251.88;;;9.77
24201;BMP280;2801;50.972;7.856;2023-02-23T09:09:00;97239.44;;;9.72
24201;BMP280;2801;50.972;7.856;2023-02-23T09:11:27;97259.09;;;9.76
24201;BMP280;2801;50.972;7.856;2023-02-23T09:13:55;97256.59;;;9.80
24201;BMP280;2801;50.972;7.856;2023-02-23T09:16:21;97250.91;;;9.81
24201;BMP280;2801;50.972;7.856;2023-02-23T09:18:48;97257.78;;;9.91
24201;BMP280;2801;50.972;7.856;2023-02-23T09:21:19;97252.41;;;9.99
24201;BMP280;2801;50.972;7.856;2023-02-23T09:23:51;97261.97;;;10.09
24201;BMP280;2801;50.972;7.856;2023-02-23T09:26:23;97261.78;;;10.14
24201;BMP280;2801;50.972;7.856;2023-02-23T09:28:50;97274.84;;;10.15
24201;BMP280;2801;50.972;7.856;2023-02-23T09:31:20;97251.59;;;10.07
24201;BMP280;2801;50.972;7.856;2023-02-23T09:33:50;97270.94;;;10.13
24201;BMP280;2801;50.972;7.856;2023-02-23T09:36:22;97263.88;;;10.08
24201;BMP280;2801;50.972;7.856;2023-02-23T09:38:54;97277.84;;;10.14
24201;BMP280;2801;50.972;7.856;2023-02-23T09:44:26;97278.50;;;10.11
24201;BMP280;2801;50.972;7.856;2023-02-23T09:49:44;97274.09;;;10.06
24201;BMP280;2801;50.972;7.856;2023-02-23T09:52:22;97269.53;;;10.07
24201;BMP280;2801;50.972;7.856;2023-02-23T09:54:49;97277.53;;;10.15
24201;BMP280;2801;50.972;7.856;2023-02-23T09:57:32;97275.63;;;10.16
24201;BMP280;2801;50.972;7.856;2023-02-23T10:00:31;97277.81;;;10.22
24201;BMP280;2801;50.972;7.856;2023-02-23T10:03:25;97281.59;;;10.21
24201;BMP280;2801;50.972;7.856;2023-02-23T10:06:01;97286.28;;;10.24
24201;BMP280;2801;50.972;7.856;2023-02-23T10:08:57;97288.97;;;10.24
24201;BMP280;2801;50.972;7.856;2023-02-23T10:17:00;97286.44;;;10.28
24201;BMP280;2801;50.972;7.856;2023-02-23T10:20:02;97286.28;;;10.24
24201;BMP280;2801;50.972;7.856;2023-02-23T10:22:34;97286.94;;;10.21
24201;BMP280;2801;50.972;7.856;2023-02-23T10:25:14;97284.00;;;10.14
24201;BMP280;2801;50.972;7.856;2023-02-23T10:27:49;97292.03;;;10.14
24201;BMP280;2801;50.972;7.856;2023-02-23T10:30:27;97290.59;;;10.17
24201;BMP280;2801;50.972;7.856;2023-02-23T10:35:29;97301.84;;;10.10
24201;BMP280;2801;50.972;7.856;2023-02-23T10:37:59;97302.16;;;10.09
24201;BMP280;2801;50.972;7.856;2023-02-23T10:40:30;97294.25;;;10.04
24201;BMP280;2801;50.972;7.856;2023-02-23T10:43:02;97302.16;;;10.00
24201;BMP280;2801;50.972;7.856;2023-02-23T10:45:38;97302.94;;;10.01
24201;BMP280;2801;50.972;7.856;2023-02-23T10:48:14;97301.69;;;9.98
24201;BMP280;2801;50.972;7.856;2023-02-23T10:50:42;97292.28;;;9.92
24201;BMP280;2801;50.972;7.856;2023-02-23T10:53:26;97304.38;;;9.98
24201;BMP280;2801;50.972;7.856;2023-02-23T10:56:10;97305.47;;;9.97
24201;BMP280;2801;50.972;7.856;2023-02-23T10:58:42;97304.84;;;10.00
24201;BMP280;2801;50.972;7.856;2023-02-23T11:01:10;97310.03;;;9.97
24201;BMP280;2801;50.972;7.856;2023-02-23T11:03:41;97304.06;;;9.91
24201;BMP280;2801;50.972;7.856;2023-02-23T11:06:31;97298.72;;;9.91
24201;BMP280;2801;50.972;7.856;2023-02-23T11:09:17;97303.75;;;9.93
24201;BMP280;2801;50.972;7.856;2023-02-23T11:12:00;97302.06;;;9.88
24201;BMP280;2801;50.972;7.856;2023-02-23T11:14:30;97296.56;;;9.85
24201;BMP280;2801;50.972;7.856;2023-02-23T11:16:59;97303.75;;;9.93
24201;BMP280;2801;50.972;7.856;2023-02-23T11:19:37;97303.91;;;9.96
24201;BMP280;2801;50.972;7.856;2023-02-23T11:22:05;97301.84;;;10.02
24201;BMP280;2801;50.972;7.856;2023-02-23T11:24:38;97301.69;;;10.07
24201;BMP280;2801;50.972;7.856;2023-02-23T11:27:19;97296.00;;;10.08
24201;BMP280;2801;50.972;7.856;2023-02-23T11:29:49;97297.25;;;10.11
24201;BMP280;2801;50.972;7.856;2023-02-23T11:32:31;97299.63;;;10.04
24201;BMP280;2801;50.972;7.856;2023-02-23T11:37:48;97287.69;;;9.93
24201;BMP280;2801;50.972;7.856;2023-02-23T11:40:32;97293.66;;;9.98
24201;BMP280;2801;50.972;7.856;2023-02-23T11:43:14;97290.06;;;9.94
24201;BMP280;2801;50.972;7.856;2023-02-23T11:45:51;97289.31;;;9.85
24201;BMP280;2801;50.972;7.856;2023-02-23T11:50:52;97290.78;;;9.74
24201;BMP280;2801;50.972;7.856;2023-02-23T11:53:38;97297.53;;;9.80
24201;BMP280;2801;50.972;7.856;2023-02-23T11:56:08;97298.00;;;9.74
24201;BMP280;2801;50.972;7.856;2023-02-23T11:58:47;97286.69;;;9.68
24201;BMP280;2801;50.972;7.856;2023-02-23T12:01:20;97293.63;;;9.69
24201;BMP280;2801;50.972;7.856;2023-02-23T12:03:57;97297.59;;;9.63
24201;BMP280;2801;50.972;7.856;2023-02-23T12:06:35;97287.38;;;9.57
24201;BMP280;2801;50.972;7.856;2023-02-23T12:09:22;97289.44;;;9.60
24201;BMP280;2801;50.972;7.856;2023-02-23T12:12:07;97292.13;;;9.51
24201;BMP280;2801;50.972;7.856;2023-02-23T12:15:11;97293.88;;;9.47
24201;BMP280;2801;50.972;7.856;2023-02-23T12:17:56;97296.06;;;9.45
24201;BMP280;2801;50.972;7.856;2023-02-23T12:20:35;97289.03;;;9.41
24201;BMP280;2801;50.972;7.856;2023-02-23T12:23:09;97289.78;;;9.41
24201;BMP280;2801;50.972;7.856;2023-02-23T12:34:11;97291.50;;;9.46
24201;BMP280;2801;50.972;7.856;2023-02-23T12:36:55;97296.22;;;9.49
24201;BMP280;2801;50.972;7.856;2023-02-23T12:39:31;97295.13;;;9.50
24201;BMP280;2801;50.972;7.856;2023-02-23T12:42:16;97297.94;;;9.53
24201;BMP280;2801;50.972;7.856;2023-02-23T12:45:02;97294.81;;;9.51
24201;BMP280;2801;50.972;7.856;2023-02-23T12:47:58;97285.81;;;9.56
24201;BMP280;2801;50.972;7.856;2023-02-23T12:50:40;97276.81;;;9.60
24201;BMP280;2801;50.972;7.856;2023-02-23T12:53:36;97265.03;;;9.61
24201;BMP280;2801;50.972;7.856;2023-02-23T12:56:56;97276.13;;;9.80
24201;BMP280;2801;50.972;7.856;2023-02-23T12:59:57;97273.66;;;9.96
24201;BMP280;2801;50.972;7.856;2023-02-23T13:02:51;97283.09;;;10.10
24201;BMP280;2801;50.972;7.856;2023-02-23T13:05:47;97278.13;;;10.21
24201;BMP280;2801;50.972;7.856;2023-02-23T13:20:43;97272.00;;;10.41
24201;BMP280;2801;50.972;7.856;2023-02-23T13:31:39;97279.06;;;10.25
24201;BMP280;2801;50.972;7.856;2023-02-23T13:34:26;97268.06;;;10.18
24201;BMP280;2801;50.972;7.856;2023-02-23T13:36:54;97273.28;;;10.14
24201;BMP280;2801;50.972;7.856;2023-02-23T13:39:43;97274.44;;;10.05
24201;BMP280;2801;50.972;7.856;2023-02-23T13:42:42;97277.13;;;9.96
24201;BMP280;2801;50.972;7.856;2023-02-23T13:45:27;97282.50;;;9.96
24201;BMP280;2801;50.972;7.856;2023-02-23T13:51:46;97272.63;;;9.88
24201;BMP280;2801;50.972;7.856;2023-02-23T13:56:49;97281.41;;;9.89
24201;BMP280;2801;50.972;7.856;2023-02-23T13:59:22;97274.38;;;9.84
24201;BMP280;2801;50.972;7.856;2023-02-23T14:01:52;97290.13;;;9.86
24201;BMP280;2801;50.972;7.856;2023-02-23T14:04:34;97287.16;;;9.79
24201;BMP280;2801;50.972;7.856;2023-02-23T14:07:17;97283.19;;;9.76
24201;BMP280;2801;50.972;7.856;2023-02-23T14:09:58;97284.00;;;9.77
24201;BMP280;2801;50.972;7.856;2023-02-23T14:12:40;97284.19;;;9.72
24201;BMP280;2801;50.972;7.856;2023-02-23T14:18:01;97289.38;;;9.68
24201;BMP280;2801;50.972;7.856;2023-02-23T14:23:35;97296.66;;;9.59
24201;BMP280;2801;50.972;7.856;2023-02-23T14:26:37;97291.63;;;9.58
24201;BMP280;2801;50.972;7.856;2023-02-23T14:29:26;97296.38;;;9.52
24201;BMP280;2801;50.972;7.856;2023-02-23T14:38:11;97297.34;;;9.39
24201;BMP280;2801;50.972;7.856;2023-02-23T14:40:47;97293.28;;;9.33
24201;BMP280;2801;50.972;7.856;2023-02-23T14:46:20;97297.38;;;9.31
24201;BMP280;2801;50.972;7.856;2023-02-23T14:49:19;97302.09;;;9.34
24201;BMP280;2801;50.972;7.856;2023-02-23T14:51:55;97295.31;;;9.36
24201;BMP280;2801;50.972;7.856;2023-02-23T14:54:33;97294.19;;;9.37
24201;BMP280;2801;50.972;7.856;2023-02-23T14:57:14;97296.25;;;9.40
24201;BMP280;2801;50.972;7.856;2023-02-23T14:59:50;97300.47;;;9.41
24201;BMP280;2801;50.972;7.856;2023-02-23T15:02:22;97298.13;;;9.40
24201;BMP280;2801;50.972;7.856;2023-02-23T15:04:50;97287.75;;;9.38
24201;BMP280;2801;50.972;7.856;2023-02-23T15:07:38;97297.97;;;9.45
24201;BMP280;2801;50.972;7.856;2023-02-23T15:10:19;97301.09;;;9.47
24201;BMP280;2801;50.972;7.856;2023-02-23T15:12:48;97303.78;;;9.47
24201;BMP280;2801;50.972;7.856;2023-02-23T15:15:23;97309.94;;;9.47
24201;BMP280;2801;50.972;7.856;2023-02-23T15:17:54;97312.44;;;9.44
24201;BMP280;2801;50.972;7.856;2023-02-23T15:20:31;97308.69;;;9.45
24201;BMP280;2801;50.972;7.856;2023-02-23T15:23:04;97303.78;;;9.47
24201;BMP280;2801;50.972;7.856;2023-02-23T15:25:38;97311.81;;;9.47
24201;BMP280;2801;50.972;7.856;2023-02-23T15:28:24;97309.00;;;9.43
24201;BMP280;2801;50.972;7.856;2023-02-23T15:30:55;97298.28;;;9.43
24201;BMP280;2801;50.972;7.856;2023-02-23T15:33:22;97303.31;;;9.45
24201;BMP280;2801;50.972;7.856;2023-02-23T15:36:14;97292.31;;;9.38
24201;BMP280;2801;50.972;7.856;2023-02-23T15:38:46;97305.84;;;9.41
24201;BMP280;2801;50.972;7.856;2023-02-23T15:41:31;97311.50;;;9.40
24201;BMP280;2801;50.972;7.856;2023-02-23T15:44:13;97315.31;;;9.30
24201;BMP280;2801;50.972;7.856;2023-02-23T15:46:44;97318.78;;;9.22
24201;BMP280;2801;50.972;7.856;2023-02-23T15:49:15;97313.59;;;9.17
24201;BMP280;2801;50.972;7.856;2023-02-23T15:51:49;97321.00;;;9.12
24201;BMP280;2801;50.972;7.856;2023-02-23T15:54:30;97319.75;;;9.09
24201;BMP280;2801;50.972;7.856;2023-02-23T15:57:05;97321.81;;;9.04
24201;BMP280;2801;50.972;7.856;2023-02-23T15:59:38;97320.56;;;9.01
24201;BMP280;2801;50.972;7.856;2023-02-23T16:02:17;97324.31;;;9.00
24201;BMP280;2801;50.972;7.856;2023-02-23T16:04:46;97321.94;;;8.99
24201;BMP280;2801;50.972;7.856;2023-02-23T16:07:21;97319.91;;;8.96
24201;BMP280;2801;50.972;7.856;2023-02-23T16:10:01;97326.03;;;8.96
24201;BMP280;2801;50.972;7.856;2023-02-23T16:12:36;97324.47;;;8.95
24201;BMP280;2801;50.972;7.856;2023-02-23T16:15:23;97333.59;;;8.94
24201;BMP280;2801;50.972;7.856;2023-02-23T16:18:18;97329.03;;;8.86
24201;BMP280;2801;50.972;7.856;2023-02-23T16:20:54;97327.91;;;8.70
24201;BMP280;2801;50.972;7.856;2023-02-23T16:23:39;97337.97;;;8.65
24201;BMP280;2801;50.972;7.856;2023-02-23T16:26:16;97327.63;;;8.55
24201;BMP280;2801;50.972;7.856;2023-02-23T16:28:45;97333.56;;;8.52
24201;BMP280;2801;50.972;7.856;2023-02-23T16:31:23;97338.28;;;8.46
24201;BMP280;2801;50.972;7.856;2023-02-23T16:33:55;97336.06;;;8.40
24201;BMP280;2801;50.972;7.856;2023-02-23T16:36:35;97332.75;;;8.34
24201;BMP280;2801;50.972;7.856;2023-02-23T16:39:10;97330.25;;;8.38
24201;BMP280;2801;50.972;7.856;2023-02-23T16:41:37;97332.16;;;8.37
24201;BMP280;2801;50.972;7.856;2023-02-23T16:44:10;97333.88;;;8.33
24201;BMP280;2801;50.972;7.856;2023-02-23T16:49:28;97324.09;;;8.29
24201;BMP280;2801;50.972;7.856;2023-02-23T16:51:56;97333.22;;;8.36
24201;BMP280;2801;50.972;7.856;2023-02-23T16:54:25;97325.97;;;8.28
24201;BMP280;2801;50.972;7.856;2023-02-23T16:56:54;97333.22;;;8.28
24201;BMP280;2801;50.972;7.856;2023-02-23T16:59:22;97332.44;;;8.27
24201;BMP280;2801;50.972;7.856;2023-02-23T17:01:50;97333.69;;;8.30
24201;BMP280;2801;50.972;7.856;2023-02-23T17:04:19;97332.56;;;8.31